sensor_id;sensor_type;location;lat;lon;timestamp;P1;durP1;ratioP1;P2;durP2;ratioP2
36001;SDS011;22070;50.922;5.430;2023-06-10T00:00:22;10.23;;;9.10;;
36001;SDS011;22070;50.922;5.430;2023-06-10T00:02:47;10.43;;;9.10;;
36001;SDS011;22070;50.922;5.430;2023-06-10T00:05:13;10.83;;;8.70;;
36001;SDS011;22070;50.922;5.430;2023-06-10T00:07:41;11.88;;;9.07;;
36001;SDS011;22070;50.922;5.430;2023-06-10T00:10:07;10.37;;;8.90;;
36001;SDS011;22070;50.922;5.430;2023-06-10T00:12:33;12.10;;;9.93;;
36001;SDS011;22070;50.922;5.430;2023-06-10T00:15:03;10.63;;;9.35;;
36001;SDS011;22070;50.922;5.430;2023-06-10T00:17:30;11.95;;;9.07;;
36001;SDS011;22070;50.922;5.430;2023-06-10T00:19:56;12.27;;;8.85;;
36001;SDS011;22070;50.922;5.430;2023-06-10T00:22:22;10.55;;;8.73;;
36001;SDS011;22070;50.922;5.430;2023-06-10T00:24:49;13.85;;;8.98;;
36001;SDS011;22070;50.922;5.430;2023-06-10T00:27:15;15.50;;;8.52;;
36001;SDS011;22070;50.922;5.430;2023-06-10T00:29:41;13.10;;;9.23;;
36001;SDS011;22070;50.922;5.430;2023-06-10T00:32:07;15.57;;;10.00;;
36001;SDS011;22070;50.922;5.430;2023-06-10T00:34:33;10.27;;;9.13;;
36001;SDS011;22070;50.922;5.430;2023-06-10T00:36:59;13.20;;;8.73;;
36001;SDS011;22070;50.922;5.430;2023-06-10T00:39:24;12.27;;;8.90;;
36001;SDS011;22070;50.922;5.430;2023-06-10T00:41:50;14.43;;;8.73;;
36001;SDS011;22070;50.922;5.430;2023-06-10T00:44:16;13.43;;;8.83;;
36001;SDS011;22070;50.922;5.430;2023-06-10T00:46:42;10.67;;;8.83;;
36001;SDS011;22070;50.922;5.430;2023-06-10T00:49:07;10.43;;;8.93;;
36001;SDS011;22070;50.922;5.430;2023-06-10T00:51:33;14.90;;;9.03;;
36001;SDS011;22070;50.922;5.430;2023-06-10T00:54:00;11.85;;;9.02;;
36001;SDS011;22070;50.922;5.430;2023-06-10T00:56:25;9.80;;;8.77;;
36001;SDS011;22070;50.922;5.430;2023-06-10T00:58:53;11.93;;;8.70;;
36001;SDS011;22070;50.922;5.430;2023-06-10T01:01:19;14.63;;;9.43;;
36001;SDS011;22070;50.922;5.430;2023-06-10T01:03:44;11.40;;;8.93;;
36001;SDS011;22070;50.922;5.430;2023-06-10T01:11:28;12.90;;;9.82;;
36001;SDS011;22070;50.922;5.430;2023-06-10T01:13:59;12.63;;;9.40;;
36001;SDS011;22070;50.922;5.430;2023-06-10T01:16:26;11.23;;;9.95;;
36001;SDS011;22070;50.922;5.430;2023-06-10T01:18:53;14.10;;;9.85;;
36001;SDS011;22070;50.922;5.430;2023-06-10T01:21:20;14.25;;;10.65;;
36001;SDS011;22070;50.922;5.430;2023-06-10T01:23:49;12.35;;;10.32;;
36001;SDS011;22070;50.922;5.430;2023-06-10T01:26:16;13.60;;;10.15;;
36001;SDS011;22070;50.922;5.430;2023-06-10T01:28:44;14.88;;;10.95;;
36001;SDS011;22070;50.922;5.430;2023-06-10T01:34:02;15.48;;;10.55;;
36001;SDS011;22070;50.922;5.430;2023-06-10T01:36:32;15.45;;;10.65;;
36001;SDS011;22070;50.922;5.430;2023-06-10T01:39:00;15.43;;;10.93;;
36001;SDS011;22070;50.922;5.430;2023-06-10T01:41:27;16.77;;;10.52;;
36001;SDS011;22070;50.922;5.430;2023-06-10T01:43:54;13.65;;;10.25;;
36001;SDS011;22070;50.922;5.430;2023-06-10T01:46:20;12.97;;;10.97;;
36001;SDS011;22070;50.922;5.430;2023-06-10T01:48:47;12.27;;;10.00;;
36001;SDS011;22070;50.922;5.430;2023-06-10T01:51:12;14.00;;;10.85;;
36001;SDS011;22070;50.922;5.430;2023-06-10T01:53:38;12.90;;;11.60;;
36001;SDS011;22070;50.922;5.430;2023-06-10T01:56:04;14.60;;;10.02;;
36001;SDS011;22070;50.922;5.430;2023-06-10T01:58:30;18.50;;;10.90;;
36001;SDS011;22070;50.922;5.430;2023-06-10T02:00:56;17.73;;;10.70;;
36001;SDS011;22070;50.922;5.430;2023-06-10T02:03:22;15.73;;;11.55;;
36001;SDS011;22070;50.922;5.430;2023-06-10T02:05:48;13.33;;;11.00;;
36001;SDS011;22070;50.922;5.430;2023-06-10T02:08:14;15.18;;;11.05;;
36001;SDS011;22070;50.922;5.430;2023-06-10T02:10:40;12.77;;;10.83;;
36001;SDS011;22070;50.922;5.430;2023-06-10T02:13:05;12.50;;;11.20;;
36001;SDS011;22070;50.922;5.430;2023-06-10T02:15:31;13.03;;;10.87;;
36001;SDS011;22070;50.922;5.430;2023-06-10T02:17:57;12.80;;;11.37;;
36001;SDS011;22070;50.922;5.430;2023-06-10T02:20:23;13.23;;;10.40;;
36001;SDS011;22070;50.922;5.430;2023-06-10T02:22:48;12.73;;;11.23;;
36001;SDS011;22070;50.922;5.430;2023-06-10T02:25:14;13.37;;;11.60;;
36001;SDS011;22070;50.922;5.430;2023-06-10T02:27:40;9.73;;;8.40;;
36001;SDS011;22070;50.922;5.430;2023-06-10T02:30:06;17.30;;;12.60;;
36001;SDS011;22070;50.922;5.430;2023-06-10T02:32:34;14.18;;;11.95;;
36001;SDS011;22070;50.922;5.430;2023-06-10T02:35:00;16.63;;;11.93;;
36001;SDS011;22070;50.922;5.430;2023-06-10T02:37:26;14.75;;;11.80;;
36001;SDS011;22070;50.922;5.430;2023-06-10T02:39:52;14.97;;;11.93;;
36001;SDS011;22070;50.922;5.430;2023-06-10T02:42:17;15.53;;;12.50;;
36001;SDS011;22070;50.922;5.430;2023-06-10T02:44:43;15.10;;;12.83;;
36001;SDS011;22070;50.922;5.430;2023-06-10T02:47:09;15.83;;;12.00;;
36001;SDS011;22070;50.922;5.430;2023-06-10T02:49:34;12.33;;;10.63;;
36001;SDS011;22070;50.922;5.430;2023-06-10T02:52:00;14.00;;;12.00;;
36001;SDS011;22070;50.922;5.430;2023-06-10T02:54:26;14.53;;;13.03;;
36001;SDS011;22070;50.922;5.430;2023-06-10T02:56:51;15.27;;;12.27;;
36001;SDS011;22070;50.922;5.430;2023-06-10T02:59:17;16.17;;;11.97;;
36001;SDS011;22070;50.922;5.430;2023-06-10T03:01:43;13.38;;;11.85;;
36001;SDS011;22070;50.922;5.430;2023-06-10T03:04:09;17.15;;;12.48;;
36001;SDS011;22070;50.922;5.430;2023-06-10T03:06:38;15.20;;;12.13;;
36001;SDS011;22070;50.922;5.430;2023-06-10T03:09:05;16.20;;;11.60;;
36001;SDS011;22070;50.922;5.430;2023-06-10T03:11:34;13.50;;;12.10;;
36001;SDS011;22070;50.922;5.430;2023-06-10T03:14:00;18.73;;;11.60;;
36001;SDS011;22070;50.922;5.430;2023-06-10T03:16:26;13.53;;;11.77;;
36001;SDS011;22070;50.922;5.430;2023-06-10T03:18:52;11.63;;;10.50;;
36001;SDS011;22070;50.922;5.430;2023-06-10T03:21:18;15.30;;;11.40;;
36001;SDS011;22070;50.922;5.430;2023-06-10T03:23:44;12.68;;;11.38;;
36001;SDS011;22070;50.922;5.430;2023-06-10T03:26:10;14.50;;;10.97;;
36001;SDS011;22070;50.922;5.430;2023-06-10T03:28:37;12.90;;;10.40;;
36001;SDS011;22070;50.922;5.430;2023-06-10T03:31:03;12.53;;;11.23;;
36001;SDS011;22070;50.922;5.430;2023-06-10T03:33:29;12.90;;;10.70;;
36001;SDS011;22070;50.922;5.430;2023-06-10T03:35:55;11.85;;;10.63;;
36001;SDS011;22070;50.922;5.430;2023-06-10T03:38:20;12.00;;;10.43;;
36001;SDS011;22070;50.922;5.430;2023-06-10T03:40:46;14.03;;;10.07;;
36001;SDS011;22070;50.922;5.430;2023-06-10T03:43:12;12.00;;;10.52;;
36001;SDS011;22070;50.922;5.430;2023-06-10T03:45:38;13.80;;;10.20;;
36001;SDS011;22070;50.922;5.430;2023-06-10T03:48:04;12.87;;;10.00;;
36001;SDS011;22070;50.922;5.430;2023-06-10T03:50:31;11.27;;;9.85;;
36001;SDS011;22070;50.922;5.430;2023-06-10T03:52:58;15.15;;;9.90;;
36001;SDS011;22070;50.922;5.430;2023-06-10T03:55:23;13.97;;;9.50;;
36001;SDS011;22070;50.922;5.430;2023-06-10T03:57:49;15.00;;;11.00;;
36001;SDS011;22070;50.922;5.430;2023-06-10T04:00:15;19.20;;;10.67;;
36001;SDS011;22070;50.922;5.430;2023-06-10T04:02:43;15.52;;;9.88;;
36001;SDS011;22070;50.922;5.430;2023-06-10T04:05:14;13.38;;;10.27;;
36001;SDS011;22070;50.922;5.430;2023-06-10T04:07:41;13.50;;;10.20;;
36001;SDS011;22070;50.922;5.430;2023-06-10T04:10:08;12.15;;;10.77;;
36001;SDS011;22070;50.922;5.430;2023-06-10T04:12:35;11.40;;;10.20;;
36001;SDS011;22070;50.922;5.430;2023-06-10T04:15:01;13.80;;;10.25;;
36001;SDS011;22070;50.922;5.430;2023-06-10T04:19:53;13.50;;;10.23;;
36001;SDS011;22070;50.922;5.430;2023-06-10T04:22:19;13.30;;;10.05;;
36001;SDS011;22070;50.922;5.430;2023-06-10T04:24:45;13.43;;;10.20;;
36001;SDS011;22070;50.922;5.430;2023-06-10T04:27:11;13.13;;;10.73;;
36001;SDS011;22070;50.922;5.430;2023-06-10T04:29:37;12.50;;;10.93;;
36001;SDS011;22070;50.922;5.430;2023-06-10T04:32:02;18.63;;;10.20;;
36001;SDS011;22070;50.922;5.430;2023-06-10T04:34:30;12.98;;;10.43;;
36001;SDS011;22070;50.922;5.430;2023-06-10T04:36:56;12.53;;;10.30;;
36001;SDS011;22070;50.922;5.430;2023-06-10T04:39:22;17.17;;;10.30;;
36001;SDS011;22070;50.922;5.430;2023-06-10T04:41:48;13.63;;;10.95;;
36001;SDS011;22070;50.922;5.430;2023-06-10T04:44:13;16.53;;;11.07;;
36001;SDS011;22070;50.922;5.430;2023-06-10T04:46:39;14.20;;;10.37;;
36001;SDS011;22070;50.922;5.430;2023-06-10T04:49:05;13.13;;;10.43;;
36001;SDS011;22070;50.922;5.430;2023-06-10T04:51:30;15.60;;;10.70;;
36001;SDS011;22070;50.922;5.430;2023-06-10T04:53:59;13.07;;;10.52;;
36001;SDS011;22070;50.922;5.430;2023-06-10T04:56:28;16.63;;;11.05;;
36001;SDS011;22070;50.922;5.430;2023-06-10T04:58:55;12.25;;;9.77;;
36001;SDS011;22070;50.922;5.430;2023-06-10T05:03:47;18.90;;;10.90;;
36001;SDS011;22070;50.922;5.430;2023-06-10T05:06:13;12.17;;;10.60;;
36001;SDS011;22070;50.922;5.430;2023-06-10T05:08:38;17.27;;;11.63;;
36001;SDS011;22070;50.922;5.430;2023-06-10T05:11:04;15.37;;;11.20;;
36001;SDS011;22070;50.922;5.430;2023-06-10T05:13:30;14.73;;;10.83;;
36001;SDS011;22070;50.922;5.430;2023-06-10T05:15:55;19.97;;;10.77;;
36001;SDS011;22070;50.922;5.430;2023-06-10T05:18:21;13.67;;;10.57;;
36001;SDS011;22070;50.922;5.430;2023-06-10T05:20:46;12.03;;;10.20;;
36001;SDS011;22070;50.922;5.430;2023-06-10T05:23:13;16.15;;;10.98;;
36001;SDS011;22070;50.922;5.430;2023-06-10T05:25:38;13.87;;;10.67;;
36001;SDS011;22070;50.922;5.430;2023-06-10T05:28:04;13.63;;;10.87;;
36001;SDS011;22070;50.922;5.430;2023-06-10T05:30:29;16.17;;;9.97;;
36001;SDS011;22070;50.922;5.430;2023-06-10T05:32:55;13.17;;;9.97;;
36001;SDS011;22070;50.922;5.430;2023-06-10T05:35:21;17.23;;;10.03;;
36001;SDS011;22070;50.922;5.430;2023-06-10T05:37:47;10.93;;;9.63;;
36001;SDS011;22070;50.922;5.430;2023-06-10T05:40:13;23.20;;;9.77;;
36001;SDS011;22070;50.922;5.430;2023-06-10T05:42:39;12.67;;;10.07;;
36001;SDS011;22070;50.922;5.430;2023-06-10T05:45:05;17.90;;;8.95;;
36001;SDS011;22070;50.922;5.430;2023-06-10T05:47:31;13.13;;;8.98;;
36001;SDS011;22070;50.922;5.430;2023-06-10T05:49:57;10.73;;;8.80;;
36001;SDS011;22070;50.922;5.430;2023-06-10T05:52:23;13.87;;;8.60;;
36001;SDS011;22070;50.922;5.430;2023-06-10T05:54:49;13.80;;;8.93;;
36001;SDS011;22070;50.922;5.430;2023-06-10T05:59:41;8.83;;;7.90;;
36001;SDS011;22070;50.922;5.430;2023-06-10T06:02:06;12.93;;;8.30;;
36001;SDS011;22070;50.922;5.430;2023-06-10T06:04:32;12.63;;;7.93;;
36001;SDS011;22070;50.922;5.430;2023-06-10T06:06:58;11.75;;;9.00;;
36001;SDS011;22070;50.922;5.430;2023-06-10T06:09:24;11.17;;;8.73;;
36001;SDS011;22070;50.922;5.430;2023-06-10T06:11:50;11.03;;;8.70;;
36001;SDS011;22070;50.922;5.430;2023-06-10T06:14:15;14.03;;;9.30;;
36001;SDS011;22070;50.922;5.430;2023-06-10T06:16:41;11.80;;;9.13;;
36001;SDS011;22070;50.922;5.430;2023-06-10T06:19:07;12.37;;;8.23;;
36001;SDS011;22070;50.922;5.430;2023-06-10T06:21:34;11.77;;;9.50;;
36001;SDS011;22070;50.922;5.430;2023-06-10T06:24:00;14.40;;;9.57;;
36001;SDS011;22070;50.922;5.430;2023-06-10T06:26:25;15.80;;;9.37;;
36001;SDS011;22070;50.922;5.430;2023-06-10T06:28:51;10.57;;;9.27;;
36001;SDS011;22070;50.922;5.430;2023-06-10T06:31:17;10.17;;;9.07;;
36001;SDS011;22070;50.922;5.430;2023-06-10T06:33:43;11.43;;;8.93;;
36001;SDS011;22070;50.922;5.430;2023-06-10T06:36:09;13.07;;;8.90;;
36001;SDS011;22070;50.922;5.430;2023-06-10T06:38:34;10.57;;;7.77;;
36001;SDS011;22070;50.922;5.430;2023-06-10T06:41:00;9.13;;;7.50;;
36001;SDS011;22070;50.922;5.430;2023-06-10T06:43:31;10.50;;;7.60;;
36001;SDS011;22070;50.922;5.430;2023-06-10T06:45:57;8.70;;;7.53;;
36001;SDS011;22070;50.922;5.430;2023-06-10T06:48:23;10.60;;;8.07;;
36001;SDS011;22070;50.922;5.430;2023-06-10T06:50:49;10.63;;;7.82;;
36001;SDS011;22070;50.922;5.430;2023-06-10T06:53:15;11.77;;;9.03;;
36001;SDS011;22070;50.922;5.430;2023-06-10T06:55:40;12.87;;;9.63;;
36001;SDS011;22070;50.922;5.430;2023-06-10T06:58:06;10.83;;;9.33;;
36001;SDS011;22070;50.922;5.430;2023-06-10T07:00:32;10.73;;;8.97;;
36001;SDS011;22070;50.922;5.430;2023-06-10T07:02:57;14.57;;;10.10;;
36001;SDS011;22070;50.922;5.430;2023-06-10T07:05:24;18.40;;;9.45;;
36001;SDS011;22070;50.922;5.430;2023-06-10T07:07:53;12.38;;;9.23;;
36001;SDS011;22070;50.922;5.430;2023-06-10T07:10:21;16.25;;;9.48;;
36001;SDS011;22070;50.922;5.430;2023-06-10T07:12:48;11.27;;;9.00;;
36001;SDS011;22070;50.922;5.430;2023-06-10T07:15:13;11.48;;;9.00;;
36001;SDS011;22070;50.922;5.430;2023-06-10T07:17:39;12.48;;;8.48;;
36001;SDS011;22070;50.922;5.430;2023-06-10T07:20:05;15.43;;;8.90;;
36001;SDS011;22070;50.922;5.430;2023-06-10T07:22:31;12.32;;;8.25;;
36001;SDS011;22070;50.922;5.430;2023-06-10T07:24:57;11.70;;;8.73;;
36001;SDS011;22070;50.922;5.430;2023-06-10T07:27:23;14.02;;;8.75;;
36001;SDS011;22070;50.922;5.430;2023-06-10T07:29:50;11.38;;;9.07;;
36001;SDS011;22070;50.922;5.430;2023-06-10T07:32:15;12.25;;;8.30;;
36001;SDS011;22070;50.922;5.430;2023-06-10T07:34:41;13.77;;;8.57;;
36001;SDS011;22070;50.922;5.430;2023-06-10T07:37:07;15.17;;;9.27;;
36001;SDS011;22070;50.922;5.430;2023-06-10T07:39:33;10.25;;;7.95;;
36001;SDS011;22070;50.922;5.430;2023-06-10T07:41:59;12.98;;;8.73;;
36001;SDS011;22070;50.922;5.430;2023-06-10T07:44:25;18.63;;;9.07;;
36001;SDS011;22070;50.922;5.430;2023-06-10T07:46:51;15.27;;;8.87;;
36001;SDS011;22070;50.922;5.430;2023-06-10T07:49:17;11.63;;;9.43;;
36001;SDS011;22070;50.922;5.430;2023-06-10T07:51:42;12.07;;;8.60;;
36001;SDS011;22070;50.922;5.430;2023-06-10T07:54:08;12.77;;;9.10;;
36001;SDS011;22070;50.922;5.430;2023-06-10T07:56:34;15.03;;;9.50;;
36001;SDS011;22070;50.922;5.430;2023-06-10T07:58:59;13.00;;;9.23;;
36001;SDS011;22070;50.922;5.430;2023-06-10T08:01:25;11.93;;;9.87;;
36001;SDS011;22070;50.922;5.430;2023-06-10T08:03:51;9.63;;;8.60;;
36001;SDS011;22070;50.922;5.430;2023-06-10T08:06:16;14.10;;;9.50;;
36001;SDS011;22070;50.922;5.430;2023-06-10T08:08:43;11.20;;;8.48;;
36001;SDS011;22070;50.922;5.430;2023-06-10T08:11:10;13.52;;;9.35;;
36001;SDS011;22070;50.922;5.430;2023-06-10T08:13:36;10.40;;;8.45;;
36001;SDS011;22070;50.922;5.430;2023-06-10T08:16:02;11.95;;;8.13;;
36001;SDS011;22070;50.922;5.430;2023-06-10T08:18:28;10.85;;;8.18;;
36001;SDS011;22070;50.922;5.430;2023-06-10T08:20:54;10.00;;;8.53;;
36001;SDS011;22070;50.922;5.430;2023-06-10T08:23:20;12.50;;;8.55;;
36001;SDS011;22070;50.922;5.430;2023-06-10T08:25:45;10.20;;;8.47;;
36001;SDS011;22070;50.922;5.430;2023-06-10T08:28:11;8.90;;;8.07;;
36001;SDS011;22070;50.922;5.430;2023-06-10T08:30:37;11.47;;;8.37;;
36001;SDS011;22070;50.922;5.430;2023-06-10T08:33:03;9.97;;;8.60;;
36001;SDS011;22070;50.922;5.430;2023-06-10T08:35:28;9.07;;;8.17;;
36001;SDS011;22070;50.922;5.430;2023-06-10T08:37:54;9.93;;;8.73;;
36001;SDS011;22070;50.922;5.430;2023-06-10T08:40:20;11.77;;;8.13;;
36001;SDS011;22070;50.922;5.430;2023-06-10T08:42:49;9.73;;;8.10;;
36001;SDS011;22070;50.922;5.430;2023-06-10T08:45:37;13.13;;;8.38;;
36001;SDS011;22070;50.922;5.430;2023-06-10T08:48:03;11.18;;;8.27;;
36001;SDS011;22070;50.922;5.430;2023-06-10T08:50:36;12.88;;;7.93;;
36001;SDS011;22070;50.922;5.430;2023-06-10T08:53:06;11.77;;;8.73;;
36001;SDS011;22070;50.922;5.430;2023-06-10T08:55:33;11.13;;;8.88;;
36001;SDS011;22070;50.922;5.430;2023-06-10T08:58:03;11.40;;;8.10;;
36001;SDS011;22070;50.922;5.430;2023-06-10T09:00:29;9.85;;;8.85;;
36001;SDS011;22070;50.922;5.430;2023-06-10T09:02:56;9.77;;;8.35;;
36001;SDS011;22070;50.922;5.430;2023-06-10T09:05:22;11.85;;;8.48;;
36001;SDS011;22070;50.922;5.430;2023-06-10T09:07:48;11.23;;;8.57;;
36001;SDS011;22070;50.922;5.430;2023-06-10T09:10:15;15.88;;;7.93;;
36001;SDS011;22070;50.922;5.430;2023-06-10T09:12:41;8.82;;;7.63;;
36001;SDS011;22070;50.922;5.430;2023-06-10T09:15:07;9.53;;;8.23;;
36001;SDS011;22070;50.922;5.430;2023-06-10T09:17:34;10.57;;;8.40;;
36001;SDS011;22070;50.922;5.430;2023-06-10T09:20:01;12.57;;;8.18;;
36001;SDS011;22070;50.922;5.430;2023-06-10T09:22:27;19.92;;;8.32;;
36001;SDS011;22070;50.922;5.430;2023-06-10T09:25:06;18.77;;;8.53;;
36001;SDS011;22070;50.922;5.430;2023-06-10T09:27:46;9.52;;;7.47;;
36001;SDS011;22070;50.922;5.430;2023-06-10T09:30:49;11.35;;;8.65;;
36001;SDS011;22070;50.922;5.430;2023-06-10T09:33:11;15.82;;;8.75;;
36001;SDS011;22070;50.922;5.430;2023-06-10T09:35:47;9.15;;;8.27;;
36001;SDS011;22070;50.922;5.430;2023-06-10T09:38:14;11.35;;;7.45;;
36001;SDS011;22070;50.922;5.430;2023-06-10T09:40:49;10.82;;;7.72;;
36001;SDS011;22070;50.922;5.430;2023-06-10T09:43:16;8.80;;;7.40;;
36001;SDS011;22070;50.922;5.430;2023-06-10T09:45:41;13.40;;;8.38;;
36001;SDS011;22070;50.922;5.430;2023-06-10T09:50:34;11.93;;;7.13;;
36001;SDS011;22070;50.922;5.430;2023-06-10T09:53:02;11.25;;;7.47;;
36001;SDS011;22070;50.922;5.430;2023-06-10T09:55:32;11.63;;;7.10;;
36001;SDS011;22070;50.922;5.430;2023-06-10T09:57:59;11.07;;;7.10;;
36001;SDS011;22070;50.922;5.430;2023-06-10T10:00:25;8.27;;;7.33;;
36001;SDS011;22070;50.922;5.430;2023-06-10T10:02:51;10.82;;;7.55;;
36001;SDS011;22070;50.922;5.430;2023-06-10T10:05:19;9.90;;;7.07;;
36001;SDS011;22070;50.922;5.430;2023-06-10T10:07:46;9.27;;;7.07;;
36001;SDS011;22070;50.922;5.430;2023-06-10T10:10:13;9.38;;;7.35;;
36001;SDS011;22070;50.922;5.430;2023-06-10T10:12:40;10.77;;;7.47;;
36001;SDS011;22070;50.922;5.430;2023-06-10T10:15:07;8.30;;;7.45;;
36001;SDS011;22070;50.922;5.430;2023-06-10T10:17:39;12.02;;;7.00;;
36001;SDS011;22070;50.922;5.430;2023-06-10T10:20:08;9.85;;;7.97;;
36001;SDS011;22070;50.922;5.430;2023-06-10T10:22:37;11.50;;;7.50;;
36001;SDS011;22070;50.922;5.430;2023-06-10T10:25:13;10.35;;;7.38;;
36001;SDS011;22070;50.922;5.430;2023-06-10T10:30:16;7.63;;;6.80;;
36001;SDS011;22070;50.922;5.430;2023-06-10T10:35:17;12.43;;;7.70;;
36001;SDS011;22070;50.922;5.430;2023-06-10T10:37:48;9.20;;;7.63;;
36001;SDS011;22070;50.922;5.430;2023-06-10T10:40:14;9.35;;;7.43;;
36001;SDS011;22070;50.922;5.430;2023-06-10T10:42:41;10.38;;;7.07;;
36001;SDS011;22070;50.922;5.430;2023-06-10T10:45:08;11.70;;;7.57;;
36001;SDS011;22070;50.922;5.430;2023-06-10T10:47:35;8.68;;;7.68;;
36001;SDS011;22070;50.922;5.430;2023-06-10T10:50:03;9.75;;;7.40;;
36001;SDS011;22070;50.922;5.430;2023-06-10T10:52:52;10.35;;;7.40;;
36001;SDS011;22070;50.922;5.430;2023-06-10T10:55:18;10.52;;;6.10;;
36001;SDS011;22070;50.922;5.430;2023-06-10T10:57:44;11.45;;;7.90;;
36001;SDS011;22070;50.922;5.430;2023-06-10T11:00:24;9.05;;;7.00;;
36001;SDS011;22070;50.922;5.430;2023-06-10T11:02:56;12.50;;;7.65;;
36001;SDS011;22070;50.922;5.430;2023-06-10T11:10:38;9.13;;;6.90;;
36001;SDS011;22070;50.922;5.430;2023-06-10T11:15:38;10.85;;;6.80;;
36001;SDS011;22070;50.922;5.430;2023-06-10T11:18:12;8.55;;;7.57;;
36001;SDS011;22070;50.922;5.430;2023-06-10T11:31:23;9.67;;;6.70;;
36001;SDS011;22070;50.922;5.430;2023-06-10T11:33:56;7.78;;;6.53;;
36001;SDS011;22070;50.922;5.430;2023-06-10T11:36:27;13.15;;;6.93;;
36001;SDS011;22070;50.922;5.430;2023-06-10T11:39:00;10.70;;;6.50;;
36001;SDS011;22070;50.922;5.430;2023-06-10T11:41:28;7.57;;;6.65;;
36001;SDS011;22070;50.922;5.430;2023-06-10T11:43:56;8.27;;;6.57;;
36001;SDS011;22070;50.922;5.430;2023-06-10T11:46:25;9.27;;;6.88;;
36001;SDS011;22070;50.922;5.430;2023-06-10T11:48:56;7.55;;;6.72;;
36001;SDS011;22070;50.922;5.430;2023-06-10T11:51:27;8.07;;;6.40;;
36001;SDS011;22070;50.922;5.430;2023-06-10T11:53:55;13.05;;;6.80;;
36001;SDS011;22070;50.922;5.430;2023-06-10T11:56:21;7.13;;;6.43;;
36001;SDS011;22070;50.922;5.430;2023-06-10T11:58:51;11.10;;;6.72;;
36001;SDS011;22070;50.922;5.430;2023-06-10T12:01:22;8.90;;;6.18;;
36001;SDS011;22070;50.922;5.430;2023-06-10T12:04:05;9.52;;;6.13;;
36001;SDS011;22070;50.922;5.430;2023-06-10T12:06:38;12.25;;;7.10;;
36001;SDS011;22070;50.922;5.430;2023-06-10T12:09:05;7.10;;;6.50;;
36001;SDS011;22070;50.922;5.430;2023-06-10T12:11:31;12.68;;;6.75;;
36001;SDS011;22070;50.922;5.430;2023-06-10T12:18:48;9.87;;;6.27;;
36001;SDS011;22070;50.922;5.430;2023-06-10T12:21:23;9.30;;;6.15;;
36001;SDS011;22070;50.922;5.430;2023-06-10T12:26:41;7.70;;;6.55;;
36001;SDS011;22070;50.922;5.430;2023-06-10T12:29:16;9.60;;;6.90;;
36001;SDS011;22070;50.922;5.430;2023-06-10T12:34:28;12.20;;;6.13;;
36001;SDS011;22070;50.922;5.430;2023-06-10T12:36:55;8.57;;;6.45;;
36001;SDS011;22070;50.922;5.430;2023-06-10T12:39:21;8.73;;;6.20;;
36001;SDS011;22070;50.922;5.430;2023-06-10T12:41:47;8.07;;;6.40;;
36001;SDS011;22070;50.922;5.430;2023-06-10T12:44:14;9.75;;;6.30;;
36001;SDS011;22070;50.922;5.430;2023-06-10T12:46:40;9.30;;;6.60;;
36001;SDS011;22070;50.922;5.430;2023-06-10T12:49:06;6.75;;;6.22;;
36001;SDS011;22070;50.922;5.430;2023-06-10T12:51:31;14.70;;;6.60;;
36001;SDS011;22070;50.922;5.430;2023-06-10T12:53:59;6.32;;;5.78;;
36001;SDS011;22070;50.922;5.430;2023-06-10T12:56:25;9.30;;;6.93;;
36001;SDS011;22070;50.922;5.430;2023-06-10T12:58:51;7.13;;;6.45;;
36001;SDS011;22070;50.922;5.430;2023-06-10T13:01:16;7.15;;;6.47;;
36001;SDS011;22070;50.922;5.430;2023-06-10T13:03:42;7.88;;;6.88;;
36001;SDS011;22070;50.922;5.430;2023-06-10T13:06:07;9.80;;;6.60;;
36001;SDS011;22070;50.922;5.430;2023-06-10T13:08:33;6.97;;;6.15;;
36001;SDS011;22070;50.922;5.430;2023-06-10T13:10:59;7.03;;;6.32;;
36001;SDS011;22070;50.922;5.430;2023-06-10T13:13:25;6.32;;;5.82;;
36001;SDS011;22070;50.922;5.430;2023-06-10T13:15:51;7.10;;;6.40;;
36001;SDS011;22070;50.922;5.430;2023-06-10T13:18:17;7.03;;;6.40;;
36001;SDS011;22070;50.922;5.430;2023-06-10T13:20:45;7.15;;;6.20;;
36001;SDS011;22070;50.922;5.430;2023-06-10T13:23:11;7.55;;;6.40;;
36001;SDS011;22070;50.922;5.430;2023-06-10T13:25:37;6.80;;;6.22;;
36001;SDS011;22070;50.922;5.430;2023-06-10T13:28:02;6.50;;;5.78;;
36001;SDS011;22070;50.922;5.430;2023-06-10T13:30:28;7.40;;;6.07;;
36001;SDS011;22070;50.922;5.430;2023-06-10T13:32:54;8.95;;;6.30;;
36001;SDS011;22070;50.922;5.430;2023-06-10T13:35:19;8.20;;;6.60;;
36001;SDS011;22070;50.922;5.430;2023-06-10T13:37:45;7.28;;;6.45;;
36001;SDS011;22070;50.922;5.430;2023-06-10T13:40:11;8.10;;;6.85;;
36001;SDS011;22070;50.922;5.430;2023-06-10T13:45:03;8.18;;;6.40;;
36001;SDS011;22070;50.922;5.430;2023-06-10T13:47:30;9.63;;;6.15;;
36001;SDS011;22070;50.922;5.430;2023-06-10T13:49:55;7.53;;;5.70;;
36001;SDS011;22070;50.922;5.430;2023-06-10T13:52:21;8.43;;;5.93;;
36001;SDS011;22070;50.922;5.430;2023-06-10T13:54:47;8.85;;;6.10;;
36001;SDS011;22070;50.922;5.430;2023-06-10T13:57:12;6.45;;;5.93;;
36001;SDS011;22070;50.922;5.430;2023-06-10T13:59:38;8.05;;;6.00;;
36001;SDS011;22070;50.922;5.430;2023-06-10T14:02:04;6.13;;;5.60;;
36001;SDS011;22070;50.922;5.430;2023-06-10T14:04:29;6.45;;;5.90;;
36001;SDS011;22070;50.922;5.430;2023-06-10T14:06:55;11.10;;;5.80;;
36001;SDS011;22070;50.922;5.430;2023-06-10T14:09:22;8.23;;;6.05;;
36001;SDS011;22070;50.922;5.430;2023-06-10T14:11:48;9.63;;;6.07;;
36001;SDS011;22070;50.922;5.430;2023-06-10T14:14:13;6.43;;;5.82;;
36001;SDS011;22070;50.922;5.430;2023-06-10T14:16:40;6.47;;;5.85;;
36001;SDS011;22070;50.922;5.430;2023-06-10T14:19:05;6.63;;;6.10;;
36001;SDS011;22070;50.922;5.430;2023-06-10T14:21:31;7.65;;;6.05;;
36001;SDS011;22070;50.922;5.430;2023-06-10T14:23:56;6.97;;;6.28;;
36001;SDS011;22070;50.922;5.430;2023-06-10T14:26:22;7.65;;;6.43;;
36001;SDS011;22070;50.922;5.430;2023-06-10T14:28:48;10.48;;;6.13;;
36001;SDS011;22070;50.922;5.430;2023-06-10T14:31:15;6.45;;;5.85;;
36001;SDS011;22070;50.922;5.430;2023-06-10T14:33:41;6.70;;;6.00;;
36001;SDS011;22070;50.922;5.430;2023-06-10T14:36:08;6.22;;;5.63;;
36001;SDS011;22070;50.922;5.430;2023-06-10T14:38:36;6.97;;;6.30;;
36001;SDS011;22070;50.922;5.430;2023-06-10T14:41:02;6.82;;;6.13;;
36001;SDS011;22070;50.922;5.430;2023-06-10T14:43:27;7.63;;;6.22;;
36001;SDS011;22070;50.922;5.430;2023-06-10T14:45:53;7.00;;;6.40;;
36001;SDS011;22070;50.922;5.430;2023-06-10T14:48:20;6.82;;;6.03;;
36001;SDS011;22070;50.922;5.430;2023-06-10T14:50:46;6.70;;;6.10;;
36001;SDS011;22070;50.922;5.430;2023-06-10T14:53:16;8.32;;;5.93;;
36001;SDS011;22070;50.922;5.430;2023-06-10T14:55:42;7.97;;;6.40;;
36001;SDS011;22070;50.922;5.430;2023-06-10T14:58:08;8.45;;;6.80;;
36001;SDS011;22070;50.922;5.430;2023-06-10T15:00:33;13.60;;;6.60;;
36001;SDS011;22070;50.922;5.430;2023-06-10T15:02:59;7.07;;;6.38;;
36001;SDS011;22070;50.922;5.430;2023-06-10T15:10:16;11.77;;;6.75;;
36001;SDS011;22070;50.922;5.430;2023-06-10T15:12:42;8.07;;;6.85;;
36001;SDS011;22070;50.922;5.430;2023-06-10T15:15:08;8.90;;;6.88;;
36001;SDS011;22070;50.922;5.430;2023-06-10T15:20:00;7.75;;;7.07;;
36001;SDS011;22070;50.922;5.430;2023-06-10T15:32:08;9.88;;;6.65;;
36001;SDS011;22070;50.922;5.430;2023-06-10T15:36:59;7.53;;;6.82;;
36001;SDS011;22070;50.922;5.430;2023-06-10T15:39:24;7.85;;;7.13;;
36001;SDS011;22070;50.922;5.430;2023-06-10T15:41:52;8.48;;;7.72;;
36001;SDS011;22070;50.922;5.430;2023-06-10T15:44:17;8.98;;;7.00;;
36001;SDS011;22070;50.922;5.430;2023-06-10T15:46:43;12.90;;;7.57;;